Isle Of Palms, South Carolina
Current Conditions -  °F | °C
As of 11:55 AM on Saturday 25 Oct 2014 (Local Time) from KLRO Reporting Station
Clear Clear  
Wind Chill: 70°   Ceiling: Unl
Heat Index: 70°   Visibility: 10mi
Dew Point: 52°   Wind: 5mph
Humidity: 53%   Direction: 330°NNW
Pressure: 30.02"   Gusts: NA
Location:  32.79°N, 79.79°W
Report Text: KLRO 251555Z AUTO 33004KT 10SM CLR 21/11 A3002 RMK AO2 PWINO PNO
Loading
Personal Weather Stations






























Interactive Weather Map
Tropical Storm Tracking
New forecast layout! Learn more

10-Day Weather Forecast

Advertisements
Track Severe Weather on mobile